createdAt,value
2022-12-19T00:00:14.731Z,8.00
2022-12-19T00:05:22.332Z,7.53
2022-12-19T00:10:28.569Z,7.90
2022-12-19T00:15:35.393Z,7.47
2022-12-19T00:20:40.764Z,8.15
2022-12-19T00:25:47.876Z,8.77
2022-12-19T00:30:53.978Z,9.02
2022-12-19T00:36:03.684Z,8.52
2022-12-19T00:41:10.028Z,8.03
2022-12-19T00:46:16.873Z,7.63
2022-12-19T00:51:24.229Z,7.07
2022-12-19T00:56:30.374Z,9.05
2022-12-19T01:01:37.099Z,8.27
2022-12-19T01:06:44.119Z,8.68
2022-12-19T01:12:05.510Z,9.18
2022-12-19T01:17:09.668Z,8.80
2022-12-19T01:22:15.760Z,8.05
2022-12-19T01:27:19.980Z,8.27
2022-12-19T01:32:25.147Z,9.52
2022-12-19T01:37:30.763Z,7.90
2022-12-19T01:42:37.209Z,8.75
2022-12-19T01:47:48.342Z,8.60
2022-12-19T01:52:58.952Z,9.20
2022-12-19T01:58:04.324Z,8.27
2022-12-19T02:03:13.209Z,9.00
2022-12-19T02:08:25.044Z,8.70
2022-12-19T02:13:30.534Z,10.02
2022-12-19T02:18:42.793Z,9.35
2022-12-19T02:24:21.028Z,8.20
2022-12-19T02:29:57.705Z,8.90
2022-12-19T02:35:09.651Z,9.77
2022-12-19T02:40:20.245Z,9.05
2022-12-19T02:45:28.871Z,8.52
2022-12-19T02:50:43.938Z,8.50
2022-12-19T02:56:00.853Z,8.35
2022-12-19T03:01:18.633Z,8.55
2022-12-19T03:06:35.941Z,6.97
2022-12-19T03:11:43.181Z,8.82
2022-12-19T03:16:47.592Z,9.77
2022-12-19T03:21:53.783Z,8.48
2022-12-19T03:27:03.469Z,8.02
2022-12-19T03:32:14.200Z,8.65
2022-12-19T03:37:23.463Z,8.95
2022-12-19T03:42:48.731Z,8.02
2022-12-19T03:47:58.753Z,7.93
2022-12-19T03:53:16.977Z,10.55
2022-12-19T03:58:29.100Z,9.77
2022-12-19T04:03:34.007Z,9.23
2022-12-19T04:08:40.012Z,10.63
2022-12-19T04:13:51.093Z,8.88
2022-12-19T04:19:03.478Z,9.63
2022-12-19T04:24:13.824Z,9.65
2022-12-19T04:29:21.240Z,9.85
2022-12-19T04:34:25.491Z,10.30
2022-12-19T04:39:31.197Z,7.93
2022-12-19T04:44:36.132Z,9.75
2022-12-19T04:49:42.476Z,10.45
2022-12-19T04:54:48.053Z,9.63
2022-12-19T04:59:52.260Z,9.18
2022-12-19T05:04:56.275Z,9.82
2022-12-19T05:10:01.921Z,9.98
2022-12-19T05:15:07.156Z,11.25
2022-12-19T05:20:12.075Z,11.40
2022-12-19T05:25:17.818Z,10.77
2022-12-19T05:30:24.471Z,11.95
2022-12-19T05:35:28.697Z,10.93
2022-12-19T05:40:34.705Z,11.07
2022-12-19T05:45:40.825Z,9.30
2022-12-19T05:50:49.271Z,11.73
2022-12-19T05:55:56.343Z,11.43
2022-12-19T06:01:03.895Z,11.18
2022-12-19T06:06:11.280Z,11.13
2022-12-19T06:11:19.593Z,12.20
2022-12-19T06:16:25.388Z,9.73
2022-12-19T06:21:30.349Z,11.15
2022-12-19T06:26:35.895Z,12.10
2022-12-19T06:31:40.047Z,12.82
2022-12-19T06:36:44.845Z,13.38
2022-12-19T06:42:07.589Z,13.52
2022-12-19T06:47:11.847Z,13.05
2022-12-19T06:52:16.117Z,11.55
2022-12-19T06:57:22.128Z,12.63
2022-12-19T07:02:30.884Z,10.90
2022-12-19T07:07:35.048Z,10.13
2022-12-19T07:12:42.983Z,12.05
2022-12-19T07:17:49.632Z,10.82
2022-12-19T07:22:54.052Z,11.77
2022-12-19T07:28:00.170Z,9.80
2022-12-19T07:33:04.404Z,8.98
2022-12-19T07:38:09.100Z,12.35
2022-12-19T07:43:17.349Z,12.95
2022-12-19T07:48:21.894Z,11.23
2022-12-19T07:53:26.336Z,10.13
2022-12-19T07:58:32.376Z,13.00
2022-12-19T08:03:37.108Z,17.95
2022-12-19T08:08:41.357Z,11.40
2022-12-19T08:13:49.463Z,11.88
2022-12-19T08:18:57.603Z,12.73
2022-12-19T08:24:01.994Z,12.13
2022-12-19T08:29:08.219Z,12.10
2022-12-19T08:34:12.535Z,10.50
2022-12-19T08:39:17.286Z,8.98
2022-12-19T08:44:25.597Z,11.70
2022-12-19T08:49:29.907Z,12.32
2022-12-19T08:54:34.408Z,11.68
2022-12-19T08:59:42.082Z,11.82
2022-12-19T09:05:57.447Z,15.63
2022-12-19T09:10:12.374Z,12.65
2022-12-19T09:15:18.285Z,11.75
2022-12-19T09:20:23.574Z,13.80
2022-12-19T09:25:28.138Z,12.73
2022-12-19T09:30:33.751Z,12.82
2022-12-19T09:35:40.634Z,13.07
2022-12-19T09:40:55.867Z,13.35
2022-12-19T09:46:11.557Z,14.05
2022-12-19T09:51:21.964Z,13.60
2022-12-19T09:56:33.077Z,14.23
2022-12-19T10:01:58.201Z,12.20
2022-12-19T10:07:21.956Z,12.55
2022-12-19T10:12:52.940Z,11.55
2022-12-19T10:18:15.860Z,11.05
2022-12-19T10:23:41.302Z,11.10
2022-12-19T10:28:58.333Z,9.57
2022-12-19T10:34:15.383Z,9.68
2022-12-19T10:39:30.214Z,9.00
2022-12-19T10:44:39.949Z,11.90
2022-12-19T10:49:45.664Z,11.50
2022-12-19T10:54:50.626Z,11.02
2022-12-19T10:59:59.987Z,10.68
2022-12-19T11:05:17.336Z,10.63
2022-12-19T11:11:16.549Z,13.02
2022-12-19T11:22:09.572Z,18.45
2022-12-19T11:28:34.500Z,17.55
2022-12-19T11:29:31.094Z,14.13
2022-12-19T11:32:40.278Z,15.30
2022-12-19T11:37:55.846Z,17.30
2022-12-19T11:43:43.084Z,9.80
2022-12-19T11:48:40.195Z,11.75
2022-12-19T11:53:58.514Z,10.68
2022-12-19T11:59:09.226Z,11.95
2022-12-19T12:04:49.410Z,11.15
2022-12-19T12:15:24.368Z,9.88
2022-12-19T12:27:45.602Z,10.82
2022-12-19T12:31:40.036Z,12.02
2022-12-19T12:31:45.689Z,10.05
2022-12-19T12:35:56.812Z,8.98
2022-12-19T12:38:25.006Z,11.00
2022-12-19T12:43:54.545Z,8.88
2022-12-19T12:49:03.047Z,8.82
2022-12-19T12:54:09.916Z,11.50
2022-12-19T12:59:26.069Z,12.20
2022-12-19T13:04:35.349Z,11.05
2022-12-19T13:09:39.726Z,8.73
2022-12-19T13:14:51.032Z,13.73
2022-12-19T13:19:57.267Z,9.90
2022-12-19T13:25:02.713Z,10.60
2022-12-19T13:30:19.959Z,10.98
2022-12-19T13:37:09.849Z,9.90
2022-12-19T13:41:01.907Z,14.20
2022-12-19T13:46:20.096Z,11.73
2022-12-19T13:51:24.442Z,11.63
2022-12-19T13:56:31.972Z,9.63
2022-12-19T14:01:39.245Z,10.82
2022-12-19T14:06:46.234Z,11.45
2022-12-19T14:13:44.201Z,13.55
2022-12-19T14:17:18.802Z,12.30
2022-12-19T14:22:26.972Z,13.35
2022-12-19T14:28:26.363Z,10.77
2022-12-19T14:33:46.085Z,11.00
2022-12-19T14:39:22.086Z,10.55
2022-12-19T14:54:05.224Z,12.25
2022-12-19T14:54:10.513Z,14.48
2022-12-19T14:56:16.053Z,17.10
2022-12-19T15:01:08.448Z,20.73
2022-12-19T15:06:19.774Z,16.67
2022-12-19T15:12:10.171Z,22.83
2022-12-19T15:17:28.574Z,15.80
2022-12-19T15:22:42.707Z,13.48
2022-12-19T15:27:48.165Z,14.30
2022-12-19T15:32:55.378Z,12.88
2022-12-19T15:38:02.834Z,11.35
2022-12-19T15:43:23.760Z,11.95
2022-12-19T15:48:41.852Z,10.40
2022-12-19T15:53:47.963Z,11.20
2022-12-19T15:58:54.022Z,15.25
2022-12-19T16:04:00.701Z,14.45
2022-12-19T16:09:18.524Z,13.60
2022-12-19T16:14:26.511Z,13.18
2022-12-19T16:19:33.244Z,13.43
2022-12-19T16:24:38.741Z,12.63
2022-12-19T16:29:46.176Z,14.98
2022-12-19T16:34:51.677Z,12.45
2022-12-19T16:39:57.417Z,12.00
2022-12-19T16:45:04.092Z,11.57
2022-12-19T16:50:16.476Z,10.82
2022-12-19T16:55:22.591Z,11.85
2022-12-19T17:00:27.782Z,11.43
2022-12-19T17:05:34.285Z,11.93
2022-12-19T17:10:45.264Z,17.08
2022-12-19T17:15:56.350Z,12.10
2022-12-19T17:21:03.339Z,11.45
2022-12-19T17:26:12.701Z,12.45
2022-12-19T17:31:25.213Z,11.20
2022-12-19T17:36:37.505Z,14.20
2022-12-19T17:41:43.636Z,19.10
2022-12-19T17:46:50.696Z,22.33
2022-12-19T17:51:56.676Z,17.77
2022-12-19T17:57:03.130Z,18.65
2022-12-19T18:02:20.610Z,13.90
2022-12-19T18:07:24.979Z,11.48
2022-12-19T18:12:31.771Z,10.82
2022-12-19T18:17:37.631Z,10.57
2022-12-19T18:22:45.196Z,13.00
2022-12-19T18:27:51.651Z,12.77
2022-12-19T18:32:58.931Z,13.93
2022-12-19T18:38:07.128Z,15.45
2022-12-19T18:43:13.578Z,13.20
2022-12-19T18:48:30.278Z,11.82
2022-12-19T18:53:36.527Z,11.45
2022-12-19T18:58:42.940Z,11.80
2022-12-19T19:03:53.706Z,10.75
2022-12-19T19:08:58.656Z,8.93
2022-12-19T19:14:36.356Z,9.98
2022-12-19T19:19:43.724Z,13.30
2022-12-19T19:24:47.755Z,10.70
2022-12-19T19:29:53.226Z,9.50
2022-12-19T19:34:57.585Z,9.25
2022-12-19T19:40:01.838Z,10.77
2022-12-19T19:45:09.725Z,8.35
2022-12-19T19:50:14.210Z,12.00
2022-12-19T19:55:19.144Z,11.93
2022-12-19T20:00:25.497Z,10.70
2022-12-19T20:05:30.167Z,9.35
2022-12-19T20:10:34.741Z,14.02
2022-12-19T20:15:46.005Z,17.05
2022-12-19T20:20:54.267Z,17.27
2022-12-19T20:26:01.913Z,10.82
2022-12-19T20:31:07.872Z,9.10
2022-12-19T20:36:13.760Z,9.52
2022-12-19T20:41:21.277Z,10.98
2022-12-19T20:46:26.861Z,13.48
2022-12-19T20:51:32.145Z,20.85
2022-12-19T20:56:37.542Z,16.38
2022-12-19T21:01:44.317Z,14.85
2022-12-19T21:06:48.679Z,13.25
2022-12-19T21:11:52.937Z,13.55
2022-12-19T21:17:01.487Z,12.30
2022-12-19T21:22:07.185Z,10.32
2022-12-19T21:27:11.679Z,12.05
2022-12-19T21:32:20.335Z,14.90
2022-12-19T21:37:25.591Z,15.27
2022-12-19T21:42:30.281Z,15.90
2022-12-19T21:47:39.536Z,12.90
2022-12-19T21:57:48.695Z,17.35
2022-12-19T22:03:16.215Z,14.73
2022-12-19T22:08:19.862Z,17.35
2022-12-19T22:13:24.547Z,16.58
2022-12-19T22:18:31.644Z,15.30
2022-12-19T22:23:35.951Z,15.77
2022-12-19T22:28:41.826Z,14.40
2022-12-19T22:33:48.234Z,8.60
2022-12-19T22:38:52.674Z,10.60
2022-12-19T22:43:57.547Z,11.35
2022-12-19T22:49:08.871Z,12.38
2022-12-19T22:54:14.213Z,13.43
2022-12-19T22:59:18.269Z,13.45
2022-12-19T23:04:24.101Z,10.13
2022-12-19T23:14:32.650Z,19.60
2022-12-19T23:19:38.188Z,13.02
2022-12-19T23:24:42.236Z,10.75
2022-12-19T23:29:47.451Z,9.68
2022-12-19T23:34:54.528Z,8.80
2022-12-19T23:39:58.572Z,6.85
2022-12-19T23:45:03.023Z,7.43
2022-12-19T23:50:10.120Z,7.20
2022-12-19T23:55:14.094Z,8.45
